Strona główna
METAR-TAF:

METAR-TAF

Lotnisko :

Dansville Municipal Airport

Dansville, Nowy Jork, Stany Zjednoczone

Szerokość geograficzna: 42-34-10N, Długość geograficzna: 077-42-52W, wysokość: 201 m

Aktualna obserwacja pogody

Raport powstał 1 godzina i 3 minut temu, godzina 07:54 UTC
Wiatr 4 kt z kierunków zmiennych
Temperatura 2°C
Wilgotność 80%
Ciśnienie 1001 hPa
Widzialność: 16.1 km
Zachmurzenie całkowite na wysokości 2000 ft

METAR: KDSV 150754Z AUTO VRB04KT 10SM OVC020 02/M01 A2956 RMK AO2 SLP022 T00221006 $

czas: 03:57 (08:57 UTC)


TAF: brakujący

Obserwacja i prognoza pogody dla ponad 4000 lotnisk (raport METAR i TAF).

Dostępne stacje oznaczono żółtymi i czerwonymi punktami na mapie.

Najedź kursorem aby zobaczyć nazwę stacji.

Kliknij aby zobaczyć obserwacje i prognozy pogody.

Aby zmienić mapę: kliknij na zielony przycisk z czarnym krzyżykiem, aby powiększyć; na zielony przycisk z myślnikiem, aby pomniejszyć; na zielone strzałki, aby przejść do map sąsiednich.


METAR-TAF: